Time;durP1;ratioP1;P1;durP2;ratioP2;P2;SDS_P1;SDS_P2;PMS_P1;PMS_P2;Temp;Humidity;BMP_temperature;BMP_pressure;BME280_temperature;BME280_humidity;BME280_pressure;Samples;Min_cycle;Max_cycle;Signal;HPM_P1;HPM_P2
2023/03/26 00:01:14;;;;;;;5.45;1.65;;;;;;;;;;7388466;19;20021;-71
2023/03/26 00:03:40;;;;;;;;;;;;;;;;;;7389873;19;19999;-69
2023/03/26 00:06:06;;;;;;;3.40;1.27;;;;;;;;;;7388669;19;19952;-69
2023/03/26 00:08:34;;;;;;;5.50;1.63;;;;;;;;;;7387304;19;20374;-69
2023/03/26 00:11:00;;;;;;;3.17;1.45;;;;;;;;;;7388284;19;20015;-70
2023/03/26 00:13:26;;;;;;;5.53;1.42;;;;;;;;;;7388190;19;19999;-70
2023/03/26 00:15:51;;;;;;;5.72;1.38;;;;;;;;;;7388360;19;20501;-70
2023/03/26 00:18:18;;;;;;;5.75;1.60;;;;;;;;;;7389937;19;20494;-69
2023/03/26 00:20:44;;;;;;;7.47;1.75;;;;;;;;;;7387473;19;20006;-70
2023/03/26 00:23:09;;;;;;;6.85;1.38;;;;;;;;;;7388277;19;20030;-69
2023/03/26 00:25:40;;;;;;;8.73;1.40;;;;;;;;;;7387940;19;20381;-70
2023/03/26 00:28:06;;;;;;;3.53;1.20;;;;;;;;;;7386705;19;20003;-69
2023/03/26 00:30:32;;;;;;;6.90;1.67;;;;;;;;;;7387471;19;20003;-69
2023/03/26 00:32:57;;;;;;;5.13;1.73;;;;;;;;;;7387908;19;20014;-70
2023/03/26 00:35:23;;;;;;;9.23;2.13;;;;;;;;;;7388316;19;20012;-69
2023/03/26 00:37:52;;;;;;;7.40;1.50;;;;;;;;;;7387009;19;20006;-69
2023/03/26 00:40:17;;;;;;;9.68;1.70;;;;;;;;;;7386576;19;20003;-69
2023/03/26 00:42:43;;;;;;;8.13;1.75;;;;;;;;;;7387247;19;20496;-71
2023/03/26 00:45:09;;;;;;;8.55;1.63;;;;;;;;;;7387215;19;20006;-69
2023/03/26 00:47:35;;;;;;;7.97;1.60;;;;;;;;;;7386039;19;20401;-70
2023/03/26 00:50:00;;;;;;;7.03;1.70;;;;;;;;;;7387897;19;19995;-70
2023/03/26 00:52:27;;;;;;;10.73;1.80;;;;;;;;;;7390711;19;20349;-70
2023/03/26 00:54:53;;;;;;;5.18;1.55;;;;;;;;;;7386709;19;20003;-69
2023/03/26 00:57:20;;;;;;;7.15;1.80;;;;;;;;;;7385067;19;20376;-70
2023/03/26 00:59:46;;;;;;;6.50;1.63;;;;;;;;;;7387933;19;20001;-70
2023/03/26 01:02:15;;;;;;;7.10;1.80;;;;;;;;;;7385949;19;19999;-71
2023/03/26 01:04:44;;;;;;;8.82;1.88;;;;;;;;;;7387583;19;20403;-69
2023/03/26 01:07:12;;;;;;;5.57;2.10;;;;;;;;;;7386712;19;20002;-69
2023/03/26 01:09:48;;;;;;;6.38;1.48;;;;;;;;;;7383284;19;20478;-70
2023/03/26 01:12:18;;;;;;;5.63;1.80;;;;;;;;;;7383329;19;20028;-70
2023/03/26 01:14:47;;;;;;;7.50;1.77;;;;;;;;;;7384141;19;20003;-71
2023/03/26 01:17:13;;;;;;;5.75;1.98;;;;;;;;;;7386882;19;20360;-69
2023/03/26 01:20:12;;;;;;;8.85;2.13;;;;;;;;;;7384007;19;20001;-69
2023/03/26 01:22:40;;;;;;;6.00;1.58;;;;;;;;;;7386531;19;20006;-69
2023/03/26 01:25:06;;;;;;;9.02;1.98;;;;;;;;;;7385803;19;20006;-70
2023/03/26 01:27:42;;;;;;;4.38;1.50;;;;;;;;;;7388760;19;20325;-70
2023/03/26 01:30:15;;;;;;;4.45;1.42;;;;;;;;;;7393265;19;20370;-69
2023/03/26 01:32:54;;;;;;;7.68;1.90;;;;;;;;;;7394677;19;20043;-70
2023/03/26 01:35:32;;;;;;;6.82;1.58;;;;;;;;;;7393785;19;20002;-70
2023/03/26 01:38:21;;;;;;;6.40;1.90;;;;;;;;;;7392143;19;20070;-69
2023/03/26 01:41:05;;;;;;;10.38;1.98;;;;;;;;;;7391983;19;20478;-69
2023/03/26 01:44:02;;;;;;;6.97;1.95;;;;;;;;;;7392742;19;20408;-69
2023/03/26 01:46:33;;;;;;;5.70;1.70;;;;;;;;;;7392103;19;19991;-70
2023/03/26 01:49:04;;;;;;;9.60;1.87;;;;;;;;;;7390227;19;20005;-70
2023/03/26 01:51:34;;;;;;;11.32;2.08;;;;;;;;;;7390250;19;19998;-70
2023/03/26 01:54:06;;;;;;;6.00;1.42;;;;;;;;;;7392480;19;20005;-70
2023/03/26 01:56:56;;;;;;;10.52;1.95;;;;;;;;;;7392370;19;20019;-70
2023/03/26 01:59:30;;;;;;;11.50;1.80;;;;;;;;;;7393274;19;20005;-70
2023/03/26 02:02:25;;;;;;;4.85;1.58;;;;;;;;;;7392501;19;20348;-70
2023/03/26 02:05:00;;;;;;;10.02;2.17;;;;;;;;;;7390969;19;20054;-71
2023/03/26 02:07:52;;;;;;;3.17;1.40;;;;;;;;;;7391848;19;20492;-69
2023/03/26 02:10:28;;;;;;;6.68;1.60;;;;;;;;;;7392241;19;19994;-69
2023/03/26 02:12:54;;;;;;;4.70;1.67;;;;;;;;;;7393198;19;20076;-69
2023/03/26 02:15:20;;;;;;;5.63;1.77;;;;;;;;;;7391971;19;20002;-69
2023/03/26 02:17:45;;;;;;;6.03;1.80;;;;;;;;;;7391552;19;19998;-71
2023/03/26 02:20:13;;;;;;;9.30;1.60;;;;;;;;;;7391415;19;19991;-70
2023/03/26 02:22:44;;;;;;;4.78;1.88;;;;;;;;;;7392676;19;20564;-70
2023/03/26 02:25:12;;;;;;;8.95;2.58;;;;;;;;;;7392804;19;20002;-69
2023/03/26 02:27:38;;;;;;;11.05;2.00;;;;;;;;;;7391143;19;20460;-70
2023/03/26 02:30:06;;;;;;;7.22;1.85;;;;;;;;;;7392010;19;20054;-70
2023/03/26 02:32:32;;;;;;;4.75;1.85;;;;;;;;;;7392101;19;19998;-70
2023/03/26 02:34:57;;;;;;;11.15;1.88;;;;;;;;;;7391924;19;20011;-70
2023/03/26 02:37:22;;;;;;;10.43;2.13;;;;;;;;;;7389314;19;20011;-69
2023/03/26 02:39:48;;;;;;;14.68;2.30;;;;;;;;;;7391426;19;20002;-69
2023/03/26 02:42:15;;;;;;;9.80;2.25;;;;;;;;;;7389092;19;19995;-70
2023/03/26 02:44:40;;;;;;;8.90;1.88;;;;;;;;;;7391207;19;20404;-70
2023/03/26 02:47:05;;;;;;;12.77;2.10;;;;;;;;;;7391094;19;19999;-70
2023/03/26 02:49:32;;;;;;;6.50;1.80;;;;;;;;;;7386988;19;20070;-69
2023/03/26 02:51:58;;;;;;;6.90;2.17;;;;;;;;;;7391277;19;20098;-69
2023/03/26 02:54:23;;;;;;;9.57;2.03;;;;;;;;;;7390882;19;20002;-70
2023/03/26 02:56:49;;;;;;;7.38;1.83;;;;;;;;;;7391528;19;19999;-70
2023/03/26 02:59:14;;;;;;;9.13;1.70;;;;;;;;;;7388878;19;20360;-68
2023/03/26 03:01:42;;;;;;;6.57;1.95;;;;;;;;;;7390003;19;20354;-70
2023/03/26 03:04:11;;;;;;;7.72;1.75;;;;;;;;;;7390497;19;20005;-70
2023/03/26 03:06:37;;;;;;;5.78;1.92;;;;;;;;;;7391687;19;20479;-70
2023/03/26 03:09:04;;;;;;;4.32;1.80;;;;;;;;;;7388584;19;20003;-69
2023/03/26 03:11:29;;;;;;;10.00;1.90;;;;;;;;;;7389760;19;20409;-70
2023/03/26 03:13:55;;;;;;;7.57;2.00;;;;;;;;;;7390190;19;19999;-69
2023/03/26 03:16:20;;;;;;;10.40;2.40;;;;;;;;;;7389822;19;19994;-69
2023/03/26 03:18:53;;;;;;;10.32;2.20;;;;;;;;;;7388528;19;20022;-70
2023/03/26 03:21:21;;;;;;;14.20;2.25;;;;;;;;;;7389395;19;20428;-70
2023/03/26 03:23:47;;;;;;;4.97;2.00;;;;;;;;;;7389918;19;19999;-69
2023/03/26 03:26:15;;;;;;;8.75;2.40;;;;;;;;;;7389532;19;20001;-69
2023/03/26 03:28:41;;;;;;;10.15;2.15;;;;;;;;;;7387769;19;19998;-70
2023/03/26 03:31:07;;;;;;;9.20;2.00;;;;;;;;;;7387320;19;20011;-70
2023/03/26 03:33:33;;;;;;;7.18;1.90;;;;;;;;;;7393604;19;20019;-70
2023/03/26 03:35:58;;;;;;;8.50;3.15;;;;;;;;;;7389184;19;19995;-69
2023/03/26 03:38:24;;;;;;;6.70;1.85;;;;;;;;;;7388309;19;20366;-70
2023/03/26 03:40:49;;;;;;;9.07;1.65;;;;;;;;;;7388510;19;19999;-70
2023/03/26 03:43:15;;;;;;;11.85;2.17;;;;;;;;;;7389016;19;19998;-70
2023/03/26 03:45:40;;;;;;;6.22;2.53;;;;;;;;;;7387333;19;20002;-69
2023/03/26 03:48:06;;;;;;;5.80;1.77;;;;;;;;;;7387663;19;20333;-69
2023/03/26 03:50:31;;;;;;;8.27;2.00;;;;;;;;;;7386511;19;20104;-69
2023/03/26 03:52:57;;;;;;;8.85;1.92;;;;;;;;;;7388545;19;20120;-69
2023/03/26 03:55:26;;;;;;;8.23;1.88;;;;;;;;;;7388595;19;20762;-69
2023/03/26 03:57:52;;;;;;;5.10;1.67;;;;;;;;;;7390190;19;20317;-69
2023/03/26 04:00:17;;;;;;;8.30;1.95;;;;;;;;;;7387912;19;19995;-71
2023/03/26 04:02:44;;;;;;;9.48;1.88;;;;;;;;;;7388517;19;19994;-69
2023/03/26 04:05:11;;;;;;;11.75;2.20;;;;;;;;;;7388367;19;19999;-70
2023/03/26 04:07:36;;;;;;;6.32;1.70;;;;;;;;;;7387791;19;20006;-70
2023/03/26 04:10:02;;;;;;;7.00;1.83;;;;;;;;;;7386753;19;19999;-70
2023/03/26 04:12:29;;;;;;;12.48;2.38;;;;;;;;;;7387622;19;20398;-71
2023/03/26 04:14:55;;;;;;;9.43;2.17;;;;;;;;;;7387940;19;20350;-68
2023/03/26 04:17:21;;;;;;;8.95;2.00;;;;;;;;;;7386244;19;19998;-71
2023/03/26 04:19:47;;;;;;;9.02;2.45;;;;;;;;;;7387819;19;20013;-70
2023/03/26 04:22:13;;;;;;;11.57;2.47;;;;;;;;;;7385847;19;19999;-70
2023/03/26 04:24:41;;;;;;;16.75;4.50;;;;;;;;;;7387818;19;20508;-69
2023/03/26 04:27:12;;;;;;;9.65;3.45;;;;;;;;;;7385769;19;20017;-68
2023/03/26 04:29:43;;;;;;;11.73;5.32;;;;;;;;;;7385695;19;20476;-70
2023/03/26 04:32:18;;;;;;;10.63;3.88;;;;;;;;;;7389734;19;20001;-71
2023/03/26 04:34:44;;;;;;;12.98;2.90;;;;;;;;;;7388455;19;20070;-70
2023/03/26 04:37:40;;;;;;;11.40;2.97;;;;;;;;;;7387481;19;19994;-69
2023/03/26 04:40:10;;;;;;;8.82;1.98;;;;;;;;;;7386492;19;20046;-69
2023/03/26 04:42:44;;;;;;;6.47;1.90;;;;;;;;;;7387269;19;20057;-69
2023/03/26 04:45:11;;;;;;;6.75;2.03;;;;;;;;;;7387740;19;19999;-70
2023/03/26 04:47:38;;;;;;;5.78;1.70;;;;;;;;;;7386886;19;20110;-69
2023/03/26 04:50:05;;;;;;;6.88;2.17;;;;;;;;;;7387504;19;20031;-70
2023/03/26 04:52:31;;;;;;;11.38;2.22;;;;;;;;;;7387192;19;20080;-70
2023/03/26 04:54:57;;;;;;;11.05;1.90;;;;;;;;;;7385906;19;20002;-70
2023/03/26 04:57:33;;;;;;;5.55;2.10;;;;;;;;;;7389852;19;19999;-70
2023/03/26 04:59:58;;;;;;;7.40;1.95;;;;;;;;;;7387358;19;20002;-70
2023/03/26 05:02:24;;;;;;;10.63;2.22;;;;;;;;;;7393411;19;19998;-70
2023/03/26 05:04:50;;;;;;;11.50;2.35;;;;;;;;;;7397814;19;19995;-70
2023/03/26 05:07:19;;;;;;;7.68;2.28;;;;;;;;;;7394374;19;20542;-70
2023/03/26 05:09:44;;;;;;;15.27;2.83;;;;;;;;;;7394521;19;20023;-71
2023/03/26 05:12:10;;;;;;;9.77;2.67;;;;;;;;;;7394095;19;19999;-69
2023/03/26 05:14:35;;;;;;;11.38;2.30;;;;;;;;;;7394650;19;20002;-70
2023/03/26 05:17:04;;;;;;;10.30;2.30;;;;;;;;;;7395362;19;20006;-70
2023/03/26 05:19:30;;;;;;;11.10;2.72;;;;;;;;;;7391544;19;20003;-70
2023/03/26 05:21:55;;;;;;;8.73;1.98;;;;;;;;;;7394412;19;20006;-72
2023/03/26 05:24:23;;;;;;;11.52;2.65;;;;;;;;;;7393969;19;20027;-71
2023/03/26 05:26:49;;;;;;;6.80;2.28;;;;;;;;;;7394202;19;20005;-71
2023/03/26 05:29:16;;;;;;;7.65;2.10;;;;;;;;;;7390752;19;20058;-71
2023/03/26 05:31:41;;;;;;;10.15;2.63;;;;;;;;;;7392320;19;20026;-71
2023/03/26 05:34:07;;;;;;;9.15;2.50;;;;;;;;;;7392601;19;19998;-71
2023/03/26 05:36:32;;;;;;;13.00;2.85;;;;;;;;;;7394363;19;20190;-70
2023/03/26 05:38:57;;;;;;;5.65;1.92;;;;;;;;;;7391099;19;19998;-71
2023/03/26 05:41:23;;;;;;;11.90;2.33;;;;;;;;;;7396442;19;19995;-71
2023/03/26 05:43:48;;;;;;;10.07;2.50;;;;;;;;;;7393181;19;19997;-70
2023/03/26 05:46:14;;;;;;;9.38;2.38;;;;;;;;;;7392848;19;19998;-71
2023/03/26 05:48:39;;;;;;;7.75;2.35;;;;;;;;;;7394731;19;20003;-70
2023/03/26 05:51:05;;;;;;;11.20;2.50;;;;;;;;;;7392986;19;20002;-69
2023/03/26 05:53:31;;;;;;;9.65;2.40;;;;;;;;;;7392817;19;19998;-69
2023/03/26 05:55:56;;;;;;;6.78;2.40;;;;;;;;;;7392947;19;20058;-70
2023/03/26 05:58:30;;;;;;;16.70;2.85;;;;;;;;;;7391816;19;20421;-71
2023/03/26 06:01:01;;;;;;;13.65;2.70;;;;;;;;;;7392278;19;20023;-69
2023/03/26 06:03:27;;;;;;;;;;;;;;;;;;7393007;19;20071;-70
2023/03/26 06:05:52;;;;;;;7.97;2.70;;;;;;;;;;7392318;19;19918;-70
2023/03/26 06:08:18;;;;;;;8.90;2.55;;;;;;;;;;7390867;19;19999;-70
2023/03/26 06:10:44;;;;;;;8.95;2.40;;;;;;;;;;7391566;19;20002;-70
2023/03/26 06:13:09;;;;;;;8.55;2.35;;;;;;;;;;7390630;19;20002;-70
2023/03/26 06:15:35;;;;;;;8.77;2.60;;;;;;;;;;7392044;19;20046;-69
2023/03/26 06:18:00;;;;;;;15.85;2.72;;;;;;;;;;7390932;19;20001;-71
2023/03/26 06:20:25;;;;;;;15.77;3.00;;;;;;;;;;7391527;19;19991;-70
2023/03/26 06:22:51;;;;;;;10.80;2.40;;;;;;;;;;7393511;19;20058;-70
2023/03/26 06:25:16;;;;;;;12.27;2.83;;;;;;;;;;7391888;19;20073;-69
2023/03/26 06:27:41;;;;;;;8.10;2.40;;;;;;;;;;7390555;19;20001;-70
2023/03/26 06:30:07;;;;;;;13.43;3.00;;;;;;;;;;7391352;19;19995;-69
2023/03/26 06:32:32;;;;;;;6.93;2.42;;;;;;;;;;7391486;19;19998;-69
2023/03/26 06:34:58;;;;;;;7.05;2.58;;;;;;;;;;7391622;19;19994;-71
2023/03/26 06:37:23;;;;;;;9.40;2.17;;;;;;;;;;7392010;19;20516;-70
2023/03/26 06:39:48;;;;;;;9.95;2.63;;;;;;;;;;7391413;19;19995;-71
2023/03/26 06:42:14;;;;;;;8.48;2.47;;;;;;;;;;7390702;19;19991;-69
2023/03/26 06:44:39;;;;;;;8.00;2.40;;;;;;;;;;7389121;19;20464;-69
2023/03/26 06:47:05;;;;;;;8.50;2.10;;;;;;;;;;7391526;19;20027;-68
2023/03/26 06:49:30;;;;;;;7.95;2.08;;;;;;;;;;7391103;19;19998;-70
2023/03/26 06:51:56;;;;;;;6.85;2.03;;;;;;;;;;7390057;19;19994;-69
2023/03/26 06:54:21;;;;;;;11.65;2.33;;;;;;;;;;7390740;19;19998;-69
2023/03/26 06:56:47;;;;;;;9.82;2.22;;;;;;;;;;7390690;19;20003;-70
2023/03/26 06:59:12;;;;;;;7.93;2.33;;;;;;;;;;7388919;19;20019;-70
2023/03/26 07:01:37;;;;;;;10.27;3.13;;;;;;;;;;7390005;19;20008;-69
2023/03/26 07:04:02;;;;;;;10.75;2.13;;;;;;;;;;7390663;19;20016;-69
2023/03/26 07:06:28;;;;;;;4.95;2.03;;;;;;;;;;7394223;19;19998;-70
2023/03/26 07:08:54;;;;;;;12.10;2.75;;;;;;;;;;7388794;19;20082;-69
2023/03/26 07:11:23;;;;;;;13.23;2.67;;;;;;;;;;7390024;19;19998;-69
2023/03/26 07:13:48;;;;;;;9.93;2.80;;;;;;;;;;7388640;19;20503;-70
2023/03/26 07:16:14;;;;;;;13.05;3.13;;;;;;;;;;7389937;19;20003;-70
2023/03/26 07:18:39;;;;;;;8.00;2.42;;;;;;;;;;7388807;19;20007;-71
2023/03/26 07:21:05;;;;;;;10.40;2.80;;;;;;;;;;7387900;19;19995;-70
2023/03/26 07:23:31;;;;;;;6.22;2.58;;;;;;;;;;7389435;19;20479;-69
2023/03/26 07:25:57;;;;;;;7.03;2.72;;;;;;;;;;7388308;19;20089;-69
2023/03/26 07:28:50;;;;;;;10.20;2.70;;;;;;;;;;7388791;19;19999;-71
2023/03/26 07:31:25;;;;;;;10.45;2.35;;;;;;;;;;7388370;19;20005;-69
2023/03/26 07:34:10;;;;;;;9.73;2.60;;;;;;;;;;7390969;19;19998;-70
2023/03/26 07:37:06;;;;;;;8.48;2.70;;;;;;;;;;7390322;19;20002;-69
2023/03/26 07:39:47;;;;;;;9.45;2.92;;;;;;;;;;7387918;19;20030;-69
2023/03/26 07:42:49;;;;;;;11.68;2.33;;;;;;;;;;7389100;19;20026;-69
2023/03/26 07:45:24;;;;;;;;;;;;;;;;;;7393653;19;20008;-68
2023/03/26 07:47:59;;;;;;;9.68;2.13;;;;;;;;;;7426173;19;20377;-68
2023/03/26 07:50:25;;;;;;;7.28;2.55;;;;;;;;;;7423245;19;20018;-70
2023/03/26 07:52:52;;;;;;;8.05;2.65;;;;;;;;;;7423774;19;20507;-69
2023/03/26 07:55:18;;;;;;;7.70;2.47;;;;;;;;;;7423904;19;20002;-69
2023/03/26 07:58:05;;;;;;;15.00;2.70;;;;;;;;;;7423103;19;20006;-70
2023/03/26 08:00:39;;;;;;;14.07;2.53;;;;;;;;;;7423253;19;20003;-68
2023/03/26 08:03:24;;;;;;;12.13;2.60;;;;;;;;;;7422206;19;20360;-68
2023/03/26 08:06:14;;;;;;;11.48;2.63;;;;;;;;;;7423351;19;19999;-69
2023/03/26 08:09:08;;;;;;;11.30;2.63;;;;;;;;;;7421898;19;20002;-69
2023/03/26 08:11:55;;;;;;;12.20;2.78;;;;;;;;;;7421274;19;20006;-68
2023/03/26 08:14:39;;;;;;;6.63;2.47;;;;;;;;;;7423341;19;20023;-69
2023/03/26 08:17:30;;;;;;;8.07;2.90;;;;;;;;;;7423371;19;20538;-69
2023/03/26 08:20:09;;;;;;;9.85;2.55;;;;;;;;;;7422705;19;20022;-69
2023/03/26 08:22:39;;;;;;;13.05;3.25;;;;;;;;;;7422810;19;20030;-68
2023/03/26 08:25:21;;;;;;;9.75;3.28;;;;;;;;;;7426039;19;19999;-69
2023/03/26 08:27:50;;;;;;;9.77;3.80;;;;;;;;;;7420391;19;20034;-69
2023/03/26 08:30:24;;;;;;;14.77;4.18;;;;;;;;;;7422209;19;20023;-70
2023/03/26 08:32:59;;;;;;;8.15;3.78;;;;;;;;;;7422329;19;20003;-69
2023/03/26 08:35:26;;;;;;;11.73;3.40;;;;;;;;;;7421813;19;20029;-69
2023/03/26 08:37:52;;;;;;;11.40;3.78;;;;;;;;;;7421927;19;20002;-69
2023/03/26 08:40:45;;;;;;;11.30;4.13;;;;;;;;;;7421514;19;20036;-70
2023/03/26 08:43:31;;;;;;;9.27;3.40;;;;;;;;;;7422147;19;20006;-70
2023/03/26 08:46:10;;;;;;;11.10;3.30;;;;;;;;;;7421121;19;19999;-70
2023/03/26 08:48:54;;;;;;;13.88;4.57;;;;;;;;;;7420203;19;20002;-71
2023/03/26 08:51:23;;;;;;;8.32;3.08;;;;;;;;;;7419393;19;20019;-70
2023/03/26 08:54:16;;;;;;;10.75;3.28;;;;;;;;;;7421647;19;20357;-69
2023/03/26 08:56:59;;;;;;;10.73;3.15;;;;;;;;;;7421519;19;20002;-69
2023/03/26 08:59:55;;;;;;;12.75;3.83;;;;;;;;;;7391778;19;20010;-69
2023/03/26 09:02:42;;;;;;;11.90;4.25;;;;;;;;;;7392216;19;19998;-69
2023/03/26 09:05:22;;;;;;;14.35;3.47;;;;;;;;;;7392974;19;20070;-69
2023/03/26 09:08:05;;;;;;;10.63;4.05;;;;;;;;;;7388524;19;19999;-70
2023/03/26 09:10:42;;;;;;;15.95;3.72;;;;;;;;;;7391270;19;20382;-69
2023/03/26 09:13:50;;;;;;;8.90;3.38;;;;;;;;;;7392341;19;20006;-69
2023/03/26 09:16:36;;;;;;;11.55;3.00;;;;;;;;;;7391021;19;19995;-69
2023/03/26 09:19:39;;;;;;;11.70;3.60;;;;;;;;;;7388710;19;20006;-69
2023/03/26 09:22:46;;;;;;;10.02;3.30;;;;;;;;;;7391681;19;20486;-70
2023/03/26 09:25:14;;;;;;;7.85;3.15;;;;;;;;;;7391707;19;20365;-69
2023/03/26 09:27:55;;;;;;;7.70;3.30;;;;;;;;;;7389381;19;20010;-69
2023/03/26 09:30:35;;;;;;;11.82;3.63;;;;;;;;;;7391034;19;20002;-69
2023/03/26 09:33:24;;;;;;;9.65;3.70;;;;;;;;;;7390072;19;20097;-70
2023/03/26 09:35:53;;;;;;;12.77;3.88;;;;;;;;;;7391250;19;20015;-69
2023/03/26 09:38:34;;;;;;;9.52;3.10;;;;;;;;;;7390233;19;20023;-70
2023/03/26 09:41:05;;;;;;;10.50;3.40;;;;;;;;;;7390209;19;19999;-70
2023/03/26 09:44:01;;;;;;;9.82;3.25;;;;;;;;;;7391654;19;20401;-69
2023/03/26 09:46:45;;;;;;;9.02;2.75;;;;;;;;;;7390037;19;20006;-71
2023/03/26 09:49:21;;;;;;;11.00;3.40;;;;;;;;;;7388905;19;20054;-70
2023/03/26 09:52:23;;;;;;;5.63;2.03;;;;;;;;;;7390300;19;20041;-71
2023/03/26 09:55:04;;;;;;;8.40;2.45;;;;;;;;;;7390704;19;20652;-70
2023/03/26 09:57:52;;;;;;;10.20;2.40;;;;;;;;;;7390559;19;20011;-71
2023/03/26 10:00:36;;;;;;;8.00;2.40;;;;;;;;;;7390518;19;20003;-70
2023/03/26 10:03:20;;;;;;;6.93;2.50;;;;;;;;;;7390509;19;20002;-70
2023/03/26 10:05:55;;;;;;;4.85;1.92;;;;;;;;;;7390239;19;20433;-70
2023/03/26 10:08:47;;;;;;;5.63;2.70;;;;;;;;;;7389799;19;20018;-69
2023/03/26 10:11:49;;;;;;;10.40;2.33;;;;;;;;;;7386258;19;20066;-70
2023/03/26 10:14:14;;;;;;;9.30;2.67;;;;;;;;;;7390966;19;20006;-69
2023/03/26 10:16:40;;;;;;;8.98;2.20;;;;;;;;;;7390015;19;20002;-70
2023/03/26 10:19:21;;;;;;;8.20;2.70;;;;;;;;;;7388877;19;20009;-70
2023/03/26 10:22:05;;;;;;;6.63;2.20;;;;;;;;;;7389738;19;20009;-71
2023/03/26 10:25:03;;;;;;;7.43;2.08;;;;;;;;;;7388463;19;20499;-70
2023/03/26 10:27:43;;;;;;;8.98;2.45;;;;;;;;;;7386240;19;19999;-70
2023/03/26 10:30:28;;;;;;;5.97;1.92;;;;;;;;;;7389743;19;20127;-70
2023/03/26 10:33:13;;;;;;;5.78;2.33;;;;;;;;;;7391062;19;19995;-71
2023/03/26 10:36:03;;;;;;;3.88;1.60;;;;;;;;;;7390003;19;20167;-70
2023/03/26 10:39:01;;;;;;;6.05;1.92;;;;;;;;;;7389296;19;20003;-70
2023/03/26 10:41:59;;;;;;;6.00;1.90;;;;;;;;;;7389286;19;20005;-70
2023/03/26 10:44:42;;;;;;;5.38;2.00;;;;;;;;;;7390055;19;20002;-69
2023/03/26 10:47:13;;;;;;;2.85;1.60;;;;;;;;;;7389096;19;20111;-70
2023/03/26 10:50:20;;;;;;;6.05;2.08;;;;;;;;;;7387988;19;20010;-70
2023/03/26 10:53:05;;;;;;;6.47;2.05;;;;;;;;;;7386116;19;20290;-72
2023/03/26 10:55:36;;;;;;;7.85;2.05;;;;;;;;;;7390902;19;20054;-69
2023/03/26 10:58:19;;;;;;;3.70;1.63;;;;;;;;;;7389212;19;20006;-69
2023/03/26 11:01:00;;;;;;;2.85;1.50;;;;;;;;;;7388875;19;19999;-68
2023/03/26 11:03:42;;;;;;;4.07;1.70;;;;;;;;;;7387938;19;20328;-70
2023/03/26 11:06:24;;;;;;;5.15;1.83;;;;;;;;;;7392996;19;20030;-69
2023/03/26 11:08:54;;;;;;;9.27;1.83;;;;;;;;;;7387614;19;20030;-70
2023/03/26 11:11:41;;;;;;;3.72;1.58;;;;;;;;;;7386633;19;20002;-69
2023/03/26 11:14:19;;;;;;;3.83;1.70;;;;;;;;;;7388477;19;20483;-70
2023/03/26 11:17:15;;;;;;;3.60;1.48;;;;;;;;;;7386829;19;20002;-70
2023/03/26 11:20:01;;;;;;;5.55;1.77;;;;;;;;;;7386968;19;20035;-70
2023/03/26 11:22:49;;;;;;;3.35;1.30;;;;;;;;;;7387958;19;20030;-70
2023/03/26 11:25:45;;;;;;;4.82;1.45;;;;;;;;;;7388329;19;19998;-70
2023/03/26 11:28:30;;;;;;;1.73;1.30;;;;;;;;;;7386738;19;20061;-69
2023/03/26 11:31:26;;;;;;;2.80;1.38;;;;;;;;;;7387374;19;20315;-69
2023/03/26 11:33:56;;;;;;;1.75;1.08;;;;;;;;;;7388180;19;19999;-70
2023/03/26 11:36:27;;;;;;;1.87;1.10;;;;;;;;;;7387577;19;20025;-70
2023/03/26 11:38:56;;;;;;;2.80;1.30;;;;;;;;;;7386417;19;20062;-70
2023/03/26 11:41:24;;;;;;;3.47;1.30;;;;;;;;;;7390711;19;19991;-70
2023/03/26 11:43:57;;;;;;;2.40;1.30;;;;;;;;;;7384975;19;20465;-71
2023/03/26 11:46:25;;;;;;;3.38;1.50;;;;;;;;;;7386254;19;20014;-69
2023/03/26 11:48:58;;;;;;;3.03;1.38;;;;;;;;;;7386947;19;20319;-70
2023/03/26 11:51:32;;;;;;;4.35;1.27;;;;;;;;;;7387245;19;20002;-70
2023/03/26 11:53:59;;;;;;;4.68;1.30;;;;;;;;;;7387411;19;19999;-70
2023/03/26 11:56:32;;;;;;;4.38;1.55;;;;;;;;;;7384243;19;20007;-70
2023/03/26 11:59:04;;;;;;;3.08;1.30;;;;;;;;;;7385827;19;19999;-69
2023/03/26 12:02:04;;;;;;;5.05;1.55;;;;;;;;;;7384217;19;20126;-71
2023/03/26 12:04:35;;;;;;;2.33;1.17;;;;;;;;;;7386649;19;20475;-70
2023/03/26 12:07:19;;;;;;;3.92;1.25;;;;;;;;;;7385818;19;20015;-71
2023/03/26 12:09:51;;;;;;;3.45;1.10;;;;;;;;;;7384809;19;20066;-70
2023/03/26 12:12:16;;;;;;;;;;;;;;;;;;7386806;19;20006;-70
2023/03/26 12:14:42;;;;;;;3.40;1.27;;;;;;;;;;7386688;19;19922;-71
2023/03/26 12:17:13;;;;;;;2.70;1.20;;;;;;;;;;7386792;19;19999;-70
2023/03/26 12:19:44;;;;;;;3.25;1.10;;;;;;;;;;7382844;19;20460;-71
2023/03/26 12:22:31;;;;;;;3.00;1.20;;;;;;;;;;7385891;19;20369;-71
2023/03/26 12:25:12;;;;;;;4.05;0.93;;;;;;;;;;7386468;19;20015;-70
2023/03/26 12:27:42;;;;;;;1.92;0.88;;;;;;;;;;7384447;19;20045;-71
2023/03/26 12:30:24;;;;;;;2.35;0.80;;;;;;;;;;7385436;19;20002;-70
2023/03/26 12:32:52;;;;;;;2.63;0.88;;;;;;;;;;7387336;19;20011;-70
2023/03/26 12:35:26;;;;;;;1.90;0.90;;;;;;;;;;7393197;19;20002;-70
2023/03/26 12:37:53;;;;;;;1.58;0.68;;;;;;;;;;7395328;19;20003;-70
2023/03/26 12:40:27;;;;;;;2.72;0.95;;;;;;;;;;7392696;19;19994;-70
2023/03/26 12:42:59;;;;;;;1.17;0.63;;;;;;;;;;7393507;19;20003;-70
2023/03/26 12:45:38;;;;;;;0.75;0.70;;;;;;;;;;7393130;19;20002;-70
2023/03/26 12:48:04;;;;;;;1.67;0.85;;;;;;;;;;7390352;19;20006;-70
2023/03/26 12:50:41;;;;;;;1.35;0.73;;;;;;;;;;7392702;19;20006;-70
2023/03/26 12:53:31;;;;;;;1.75;0.80;;;;;;;;;;7393378;19;20066;-71
2023/03/26 12:56:06;;;;;;;2.60;0.70;;;;;;;;;;7393082;19;19998;-72
2023/03/26 12:58:50;;;;;;;1.10;0.63;;;;;;;;;;7391504;19;20065;-70
2023/03/26 13:01:40;;;;;;;4.43;0.93;;;;;;;;;;7395989;19;20006;-71
2023/03/26 13:04:12;;;;;;;2.50;0.80;;;;;;;;;;7392761;19;20003;-69
2023/03/26 13:06:54;;;;;;;4.45;1.25;;;;;;;;;;7391948;19;20066;-69
2023/03/26 13:09:36;;;;;;;1.80;1.02;;;;;;;;;;7390557;19;20327;-69
2023/03/26 13:12:24;;;;;;;2.58;0.95;;;;;;;;;;7389787;19;19998;-69
2023/03/26 13:15:11;;;;;;;1.08;0.65;;;;;;;;;;7394298;19;19994;-70
2023/03/26 13:17:52;;;;;;;2.22;0.90;;;;;;;;;;7390519;19;20002;-70
2023/03/26 13:20:23;;;;;;;1.80;0.90;;;;;;;;;;7391632;19;20030;-70
2023/03/26 13:22:48;;;;;;;;;;;;;;;;;;7392621;19;19999;-69
2023/03/26 13:25:32;;;;;;;4.37;0.80;;;;;;;;;;7391699;19;19915;-70
2023/03/26 13:28:42;;;;;;;1.88;0.70;;;;;;;;;;7387793;19;20251;-70
2023/03/26 13:31:22;;;;;;;4.68;1.17;;;;;;;;;;7391002;19;20475;-70
2023/03/26 13:34:14;;;;;;;3.67;1.13;;;;;;;;;;7393597;19;19991;-70
2023/03/26 13:37:12;;;;;;;3.38;0.98;;;;;;;;;;7392102;19;20005;-71
2023/03/26 13:39:59;;;;;;;1.00;0.65;;;;;;;;;;7388744;19;20003;-69
2023/03/26 13:42:47;;;;;;;2.17;1.02;;;;;;;;;;7391743;19;19994;-70
2023/03/26 13:45:24;;;;;;;2.08;0.77;;;;;;;;;;7390624;19;20014;-70
2023/03/26 13:47:54;;;;;;;5.28;1.10;;;;;;;;;;7387881;19;19998;-70
2023/03/26 13:50:29;;;;;;;3.08;1.15;;;;;;;;;;7392719;19;20100;-69
2023/03/26 13:53:17;;;;;;;4.13;1.30;;;;;;;;;;7391555;19;20040;-69
2023/03/26 13:55:50;;;;;;;3.63;1.02;;;;;;;;;;7391293;19;20021;-69
2023/03/26 13:58:24;;;;;;;3.80;1.10;;;;;;;;;;7390119;19;20003;-71
2023/03/26 14:03:45;;;;;;;3.20;0.90;;;;;;;;;;7392977;19;20010;-69
2023/03/26 14:06:42;;;;;;;1.70;0.90;;;;;;;;;;7392005;19;20002;-69
2023/03/26 14:09:14;;;;;;;3.28;0.98;;;;;;;;;;7391477;19;20472;-69
2023/03/26 14:11:55;;;;;;;2.20;0.88;;;;;;;;;;7389463;19;20007;-69
2023/03/26 14:14:30;;;;;;;3.08;0.80;;;;;;;;;;7390970;19;20021;-69
2023/03/26 14:17:01;;;;;;;3.67;1.02;;;;;;;;;;7391198;19;20010;-69
2023/03/26 14:19:37;;;;;;;2.85;1.00;;;;;;;;;;7391525;19;20432;-70
2023/03/26 14:22:08;;;;;;;2.05;0.88;;;;;;;;;;7389733;19;20466;-70
2023/03/26 14:24:39;;;;;;;;;;;;;;;;;;7391686;19;20543;-69
2023/03/26 14:27:36;;;;;;;2.78;0.90;;;;;;;;;;7389413;19;19944;-69
2023/03/26 14:30:23;;;;;;;2.45;0.95;;;;;;;;;;7390693;19;20006;-69
2023/03/26 14:33:26;;;;;;;4.95;1.25;;;;;;;;;;7390947;19;20471;-69
2023/03/26 14:36:03;;;;;;;3.92;1.20;;;;;;;;;;7395267;19;20005;-70
2023/03/26 14:38:53;;;;;;;3.28;1.10;;;;;;;;;;7390406;19;20471;-70
2023/03/26 14:41:45;;;;;;;3.03;1.33;;;;;;;;;;7389120;19;20002;-70
2023/03/26 14:44:25;;;;;;;5.10;1.30;;;;;;;;;;7388309;19;20006;-70
2023/03/26 14:47:19;;;;;;;3.90;1.30;;;;;;;;;;7389436;19;19999;-70
2023/03/26 14:50:03;;;;;;;3.85;1.00;;;;;;;;;;7390076;19;19999;-71
2023/03/26 14:52:46;;;;;;;4.70;1.40;;;;;;;;;;7387921;19;20021;-70
2023/03/26 14:55:18;;;;;;;2.83;0.90;;;;;;;;;;7387114;19;20523;-70
2023/03/26 14:57:55;;;;;;;4.90;1.10;;;;;;;;;;7389067;19;19998;-69
2023/03/26 15:00:37;;;;;;;3.58;1.23;;;;;;;;;;7392708;19;20344;-70
2023/03/26 15:03:12;;;;;;;5.32;1.40;;;;;;;;;;7387649;19;19995;-70
2023/03/26 15:06:03;;;;;;;1.33;1.00;;;;;;;;;;7389501;19;20463;-71
2023/03/26 15:09:06;;;;;;;3.85;1.30;;;;;;;;;;7387039;19;19998;-69
2023/03/26 15:11:44;;;;;;;3.20;1.00;;;;;;;;;;7388533;19;20022;-70
2023/03/26 15:14:21;;;;;;;4.55;1.20;;;;;;;;;;7389091;19;20337;-71
2023/03/26 15:17:26;;;;;;;4.15;1.40;;;;;;;;;;7387513;19;20007;-70
2023/03/26 15:20:09;;;;;;;9.20;1.92;;;;;;;;;;7389088;19;19998;-69
2023/03/26 15:23:12;;;;;;;6.20;1.33;;;;;;;;;;7387533;19;20474;-71
2023/03/26 15:25:56;;;;;;;4.50;0.98;;;;;;;;;;7388687;19;19998;-70
2023/03/26 15:28:46;;;;;;;4.82;1.20;;;;;;;;;;7388850;19;19999;-70